Time;durP1;ratioP1;P1;durP2;ratioP2;P2;SDS_P1;SDS_P2;PMS_P1;PMS_P2;Temp;Humidity;BMP_temperature;BMP_pressure;BME280_temperature;BME280_humidity;BME280_pressure;Samples;Min_cycle;Max_cycle;Signal;HPM_P1;HPM_P2
2023/01/25 00:00:15;;;;;;;34.30;21.77;;;3.00;99.90;;;;;;5022052;28;20550;-69
2023/01/25 00:02:41;;;;;;;38.77;22.80;;;3.00;99.90;;;;;;5013172;28;20183;-69
2023/01/25 00:05:07;;;;;;;42.00;23.70;;;3.00;99.90;;;;;;5022878;28;20229;-69
2023/01/25 00:07:32;;;;;;;34.90;23.00;;;3.00;99.90;;;;;;5018380;28;21714;-69
2023/01/25 00:09:58;;;;;;;34.27;21.63;;;3.00;99.90;;;;;;5018609;28;20213;-70
2023/01/25 00:12:23;;;;;;;32.70;21.60;;;3.00;99.90;;;;;;5016593;28;20181;-69
2023/01/25 00:14:49;;;;;;;34.67;22.90;;;3.00;99.90;;;;;;5021118;28;20194;-69
2023/01/25 00:17:14;;;;;;;35.37;23.63;;;3.00;99.90;;;;;;5019980;28;20194;-69
2023/01/25 00:19:40;;;;;;;31.53;22.13;;;3.00;99.90;;;;;;5014033;28;20209;-69
2023/01/25 00:22:05;;;;;;;33.90;21.77;;;3.00;99.90;;;;;;5021352;28;20184;-70
2023/01/25 00:24:31;;;;;;;35.97;23.37;;;3.00;99.90;;;;;;5022701;28;20558;-69
2023/01/25 00:26:56;;;;;;;33.23;21.30;;;3.00;99.90;;;;;;5026094;28;20183;-70
2023/01/25 00:29:22;;;;;;;37.97;22.10;;;3.00;99.90;;;;;;5014049;28;20214;-69
2023/01/25 00:31:56;;;;;;;31.30;21.43;;;3.10;99.90;;;;;;5013589;28;20291;-70
2023/01/25 00:34:25;;;;;;;35.17;21.97;;;3.10;99.90;;;;;;5020566;28;20186;-69
2023/01/25 00:36:54;;;;;;;41.70;24.13;;;3.00;99.90;;;;;;5015343;28;20838;-70
2023/01/25 00:39:19;;;;;;;35.97;21.20;;;3.00;99.90;;;;;;5020322;28;20469;-69
2023/01/25 00:41:45;;;;;;;30.73;22.73;;;3.10;99.90;;;;;;5022749;28;20430;-69
2023/01/25 00:44:11;;;;;;;36.27;22.70;;;3.10;99.90;;;;;;5025610;28;20237;-69
2023/01/25 00:46:36;;;;;;;29.23;22.03;;;3.10;99.90;;;;;;5015963;28;20179;-71
2023/01/25 00:49:02;;;;;;;34.70;22.57;;;3.10;99.90;;;;;;5017277;28;20682;-70
2023/01/25 00:51:27;;;;;;;30.87;21.53;;;3.00;99.90;;;;;;5022921;28;20190;-70
2023/01/25 00:53:53;;;;;;;35.43;22.40;;;3.00;99.90;;;;;;5020860;28;20184;-70
2023/01/25 00:56:18;;;;;;;34.40;20.37;;;3.10;99.90;;;;;;5020848;28;20186;-70
2023/01/25 00:58:44;;;;;;;36.37;22.60;;;3.10;99.90;;;;;;5023208;28;20564;-70
2023/01/25 01:01:10;;;;;;;31.50;22.10;;;3.10;99.90;;;;;;5021574;28;20228;-71
2023/01/25 01:03:36;;;;;;;34.73;22.13;;;3.20;99.90;;;;;;5020203;28;20175;-70
2023/01/25 01:06:08;;;;;;;37.67;20.73;;;3.10;99.90;;;;;;5008073;28;20444;-71
2023/01/25 01:08:37;;;;;;;35.70;21.07;;;3.10;99.90;;;;;;5024387;28;20332;-70
2023/01/25 01:11:04;;;;;;;32.50;23.03;;;3.10;99.90;;;;;;5017088;28;20441;-71
2023/01/25 01:13:30;;;;;;;34.37;21.37;;;3.10;99.90;;;;;;5015441;28;20441;-71
2023/01/25 01:16:01;;;;;;;35.67;21.80;;;3.10;99.90;;;;;;5015551;28;20453;-71
2023/01/25 01:18:27;;;;;;;30.30;19.87;;;3.10;99.90;;;;;;5010987;28;20221;-70
2023/01/25 01:20:52;;;;;;;35.47;23.37;;;3.20;99.90;;;;;;5009980;28;20516;-70
2023/01/25 01:23:18;;;;;;;29.17;19.70;;;3.20;99.90;;;;;;5009884;28;20170;-70
2023/01/25 01:25:44;;;;;;;34.40;22.37;;;3.20;99.90;;;;;;5011443;28;20671;-70
2023/01/25 01:28:10;;;;;;;30.87;20.93;;;3.20;99.90;;;;;;5011720;28;20552;-70
2023/01/25 01:30:36;;;;;;;33.87;21.30;;;3.10;99.90;;;;;;5009758;28;20222;-70
2023/01/25 01:33:02;;;;;;;33.00;20.80;;;3.20;99.90;;;;;;5009518;28;20442;-70
2023/01/25 01:35:28;;;;;;;31.10;21.40;;;3.10;99.90;;;;;;5019851;28;20440;-70
2023/01/25 01:37:54;;;;;;;27.93;19.17;;;3.20;99.90;;;;;;5024056;28;20302;-70
2023/01/25 01:40:19;;;;;;;32.60;21.53;;;3.10;99.90;;;;;;5022836;28;20515;-70
2023/01/25 01:42:59;;;;;;;33.77;20.33;;;3.10;99.90;;;;;;5013511;28;20198;-70
2023/01/25 01:45:46;;;;;;;32.03;21.07;;;3.00;99.90;;;;;;5017777;28;20262;-70
2023/01/25 01:48:19;;;;;;;32.47;21.23;;;3.00;99.90;;;;;;5019482;28;20469;-70
2023/01/25 01:50:47;;;;;;;36.23;21.90;;;3.00;99.90;;;;;;5015707;28;20529;-70
2023/01/25 01:53:13;;;;;;;42.20;21.33;;;3.00;99.90;;;;;;5024353;28;20515;-70
2023/01/25 01:55:39;;;;;;;27.40;19.03;;;3.00;99.90;;;;;;5021825;28;20440;-70
2023/01/25 01:58:06;;;;;;;33.67;19.30;;;3.00;99.90;;;;;;5021723;28;20457;-70
2023/01/25 02:00:35;;;;;;;35.90;21.30;;;3.00;99.90;;;;;;5019489;28;20445;-70
2023/01/25 02:03:01;;;;;;;33.17;20.37;;;3.00;99.90;;;;;;5023322;28;20845;-70
2023/01/25 02:05:45;;;;;;;31.57;21.57;;;3.00;99.90;;;;;;5019449;28;20516;-70
2023/01/25 02:08:13;;;;;;;29.70;18.63;;;3.00;99.90;;;;;;5018414;28;20211;-70
2023/01/25 02:10:40;;;;;;;29.50;20.53;;;2.90;99.90;;;;;;5021183;28;20442;-70
2023/01/25 02:13:06;;;;;;;28.47;19.10;;;3.00;99.90;;;;;;5020369;28;20439;-70
2023/01/25 02:15:45;;;;;;;33.80;21.60;;;3.00;99.90;;;;;;5020350;28;20803;-70
2023/01/25 02:18:11;;;;;;;32.53;20.80;;;3.00;99.90;;;;;;5019165;28;20214;-70
2023/01/25 02:20:44;;;;;;;31.87;21.50;;;3.00;99.90;;;;;;5019963;28;20430;-71
2023/01/25 02:23:26;;;;;;;31.63;21.70;;;3.00;99.90;;;;;;5001987;28;20437;-69
2023/01/25 02:25:53;;;;;;;29.57;21.23;;;3.00;99.90;;;;;;5009588;28;20434;-70
2023/01/25 02:28:33;;;;;;;30.50;20.40;;;3.00;99.90;;;;;;4991864;28;20695;-70
2023/01/25 02:30:58;;;;;;;36.53;23.03;;;3.00;99.90;;;;;;5011101;28;20780;-70
2023/01/25 02:33:26;;;;;;;37.03;20.03;;;3.00;99.90;;;;;;5011629;28;20489;-70
2023/01/25 02:36:04;;;;;;;31.07;19.23;;;3.00;99.90;;;;;;5010748;28;20183;-69
2023/01/25 02:38:33;;;;;;;30.17;18.10;;;3.00;99.90;;;;;;5008802;28;20469;-70
2023/01/25 02:41:16;;;;;;;32.63;20.60;;;3.00;99.90;;;;;;5010778;28;20536;-70
2023/01/25 02:43:41;;;;;;;30.07;18.97;;;3.00;99.90;;;;;;5008439;28;20437;-70
2023/01/25 02:46:30;;;;;;;38.20;19.83;;;3.00;99.90;;;;;;5010145;28;20456;-70
2023/01/25 02:48:57;;;;;;;29.87;18.33;;;3.00;99.90;;;;;;5010127;28;20204;-70
2023/01/25 02:51:25;;;;;;;28.67;18.30;;;3.10;99.90;;;;;;4992399;28;20425;-70
2023/01/25 02:53:50;;;;;;;31.23;21.50;;;3.00;99.90;;;;;;5010262;28;20436;-70
2023/01/25 02:56:17;;;;;;;32.33;19.57;;;3.00;99.90;;;;;;5009574;28;20520;-70
2023/01/25 02:58:42;;;;;;;30.70;20.17;;;3.00;99.90;;;;;;5007492;28;20206;-70
2023/01/25 03:01:08;;;;;;;28.13;19.40;;;3.00;99.90;;;;;;5010094;28;20432;-70
2023/01/25 03:03:34;;;;;;;37.20;21.87;;;3.00;99.90;;;;;;5013993;28;20703;-70
2023/01/25 03:05:59;;;;;;;31.07;19.47;;;3.00;99.90;;;;;;5007560;28;20437;-70
2023/01/25 03:08:25;;;;;;;33.30;20.67;;;3.00;99.90;;;;;;5009218;28;20210;-70
2023/01/25 03:10:54;;;;;;;31.60;20.27;;;2.90;99.90;;;;;;5019689;28;20183;-70
2023/01/25 03:13:20;;;;;;;29.17;20.00;;;2.90;99.90;;;;;;5023799;28;20196;-70
2023/01/25 03:15:45;;;;;;;34.97;20.40;;;2.90;99.90;;;;;;5020743;28;20528;-70
2023/01/25 03:18:11;;;;;;;28.30;19.40;;;2.90;99.90;;;;;;5018488;28;20202;-71
2023/01/25 03:20:36;;;;;;;28.27;22.03;;;2.90;99.90;;;;;;5017897;28;20175;-70
2023/01/25 03:23:02;;;;;;;28.40;19.23;;;3.00;99.90;;;;;;5019156;28;20185;-70
2023/01/25 03:25:27;;;;;;;37.10;21.20;;;3.00;99.90;;;;;;5024892;28;20239;-70
2023/01/25 03:27:53;;;;;;;27.43;19.57;;;3.00;99.90;;;;;;5019022;28;20287;-70
2023/01/25 03:30:19;;;;;;;30.40;19.70;;;2.90;99.90;;;;;;5018943;28;20186;-70
2023/01/25 03:32:44;;;;;;;34.43;19.80;;;2.90;99.90;;;;;;5016530;28;20186;-70
2023/01/25 03:35:09;;;;;;;37.27;22.43;;;2.80;99.90;;;;;;5023102;28;20178;-70
2023/01/25 03:37:35;;;;;;;28.17;19.80;;;2.80;99.90;;;;;;5013280;28;20297;-70
2023/01/25 03:40:01;;;;;;;34.03;19.20;;;2.80;99.90;;;;;;5022292;28;20182;-70
2023/01/25 03:42:26;;;;;;;32.17;18.97;;;2.90;99.90;;;;;;5019441;28;20175;-70
2023/01/25 03:44:52;;;;;;;34.50;19.70;;;2.90;99.90;;;;;;5017261;28;20767;-70
2023/01/25 03:47:17;;;;;;;33.33;20.77;;;2.90;99.90;;;;;;5010530;28;20175;-70
2023/01/25 03:49:43;;;;;;;27.70;17.63;;;3.00;99.90;;;;;;5026323;28;20236;-70
2023/01/25 03:52:08;;;;;;;32.23;20.33;;;2.90;99.90;;;;;;5014570;28;20183;-70
2023/01/25 03:54:34;;;;;;;26.80;19.73;;;2.90;99.90;;;;;;5022617;28;20179;-70
2023/01/25 03:56:59;;;;;;;28.60;19.40;;;2.90;99.90;;;;;;5018914;28;20265;-70
2023/01/25 03:59:25;;;;;;;32.47;19.93;;;2.90;99.90;;;;;;5022218;28;20213;-70
2023/01/25 04:01:51;;;;;;;28.27;18.30;;;2.90;99.90;;;;;;5017040;28;20190;-70
2023/01/25 04:04:16;;;;;;;35.47;20.93;;;2.90;99.90;;;;;;5008466;28;20189;-70
2023/01/25 04:06:42;;;;;;;38.10;20.73;;;2.90;99.90;;;;;;5017810;28;20198;-71
2023/01/25 04:09:08;;;;;;;35.17;20.07;;;2.90;99.90;;;;;;5011841;28;20242;-70
2023/01/25 04:11:33;;;;;;;32.33;18.70;;;2.90;99.90;;;;;;5022211;28;20712;-70
2023/01/25 04:13:59;;;;;;;30.23;19.73;;;2.90;99.90;;;;;;5016446;28;20187;-70
2023/01/25 04:16:24;;;;;;;22.60;16.90;;;3.00;99.90;;;;;;5014615;28;20197;-70
2023/01/25 04:18:50;;;;;;;29.27;18.77;;;3.10;99.90;;;;;;5018585;28;20257;-70
2023/01/25 04:21:15;;;;;;;33.47;20.13;;;3.10;99.90;;;;;;5021786;28;20631;-70
2023/01/25 04:23:41;;;;;;;24.20;17.80;;;3.10;99.90;;;;;;5022887;28;20191;-70
2023/01/25 04:26:11;;;;;;;30.80;18.07;;;3.10;99.90;;;;;;5025712;28;20190;-70
2023/01/25 04:28:36;;;;;;;25.67;17.03;;;3.00;99.90;;;;;;5022772;28;20209;-70
2023/01/25 04:31:04;;;;;;;27.80;19.00;;;3.00;99.90;;;;;;5017503;28;20544;-70
2023/01/25 04:33:30;;;;;;;29.13;19.80;;;3.00;99.90;;;;;;5022427;28;20270;-70
2023/01/25 04:35:56;;;;;;;31.07;18.60;;;3.00;99.90;;;;;;5020378;28;20536;-70
2023/01/25 04:38:22;;;;;;;25.87;18.57;;;3.00;99.90;;;;;;5020462;28;20264;-70
2023/01/25 04:40:47;;;;;;;25.93;16.50;;;2.90;99.90;;;;;;5022972;28;20272;-70
2023/01/25 04:43:16;;;;;;;31.07;17.13;;;3.00;99.90;;;;;;5020893;28;20645;-70
2023/01/25 04:45:42;;;;;;;22.80;15.43;;;3.00;99.90;;;;;;5022827;28;20191;-70
2023/01/25 04:48:09;;;;;;;28.07;17.07;;;2.90;99.90;;;;;;5020080;28;21295;-70
2023/01/25 04:50:36;;;;;;;32.23;17.73;;;2.90;99.90;;;;;;5006021;28;20187;-70
2023/01/25 04:53:02;;;;;;;24.47;15.63;;;2.90;99.90;;;;;;5002753;28;20441;-70
2023/01/25 04:55:28;;;;;;;26.40;16.73;;;2.90;99.90;;;;;;5028101;28;20459;-70
2023/01/25 04:57:53;;;;;;;23.93;15.37;;;2.90;99.90;;;;;;5023059;28;20244;-70
2023/01/25 05:00:19;;;;;;;28.13;17.20;;;2.90;99.90;;;;;;5014008;28;20594;-70
2023/01/25 05:02:45;;;;;;;26.60;16.07;;;3.00;99.90;;;;;;5020719;28;20190;-71
2023/01/25 05:05:10;;;;;;;23.60;16.57;;;3.00;99.90;;;;;;5017995;28;20947;-70
2023/01/25 05:07:36;;;;;;;25.20;15.90;;;3.00;99.90;;;;;;5019712;28;20683;-70
2023/01/25 05:10:03;;;;;;;23.70;16.40;;;3.00;99.90;;;;;;5007630;28;20182;-70
2023/01/25 05:12:28;;;;;;;25.97;17.33;;;3.00;99.90;;;;;;5023346;28;20973;-70
2023/01/25 05:14:54;;;;;;;22.33;14.80;;;3.00;99.90;;;;;;5018401;28;20448;-69
2023/01/25 05:17:20;;;;;;;22.43;14.07;;;3.10;99.90;;;;;;5011926;28;20210;-70
2023/01/25 05:19:45;;;;;;;27.87;15.80;;;3.00;99.90;;;;;;5010967;28;20529;-70
2023/01/25 05:22:16;;;;;;;25.77;15.77;;;2.90;99.90;;;;;;5012678;28;20636;-71
2023/01/25 05:24:43;;;;;;;22.83;14.73;;;2.90;99.90;;;;;;5008723;28;20237;-70
2023/01/25 05:27:10;;;;;;;25.47;15.43;;;2.80;99.90;;;;;;5011240;28;20438;-70
2023/01/25 05:29:38;;;;;;;26.20;16.90;;;2.90;99.90;;;;;;5013339;28;20877;-70
2023/01/25 05:32:13;;;;;;;23.53;14.73;;;2.90;99.90;;;;;;4996202;28;20938;-70
2023/01/25 05:34:39;;;;;;;21.93;14.57;;;2.90;99.90;;;;;;5014542;28;20444;-70
2023/01/25 05:37:07;;;;;;;23.73;13.97;;;2.90;99.90;;;;;;5019645;28;20474;-70
2023/01/25 05:39:33;;;;;;;21.13;14.20;;;2.90;99.90;;;;;;5014043;28;21010;-70
2023/01/25 05:41:58;;;;;;;20.47;13.57;;;3.00;99.90;;;;;;5024017;28;20711;-70
2023/01/25 05:44:24;;;;;;;24.70;15.40;;;3.00;99.90;;;;;;5017468;28;20645;-70
2023/01/25 05:46:50;;;;;;;24.90;17.10;;;3.10;99.90;;;;;;5004716;28;20274;-70
2023/01/25 05:49:17;;;;;;;25.07;16.30;;;3.10;99.90;;;;;;5020008;28;20252;-70
2023/01/25 05:51:43;;;;;;;24.20;17.87;;;3.10;99.90;;;;;;5021642;28;20210;-70
2023/01/25 05:54:14;;;;;;;23.10;15.43;;;3.10;99.90;;;;;;5023475;28;20498;-70
2023/01/25 05:56:40;;;;;;;24.90;14.50;;;3.10;99.90;;;;;;4999122;28;20511;-70
2023/01/25 05:59:05;;;;;;;27.27;16.20;;;3.00;99.90;;;;;;5022634;28;20560;-71
2023/01/25 06:01:31;;;;;;;21.37;14.47;;;2.90;99.90;;;;;;5016428;28;20178;-70
2023/01/25 06:03:57;;;;;;;25.03;14.10;;;2.90;99.90;;;;;;5021488;28;20182;-70
2023/01/25 06:06:23;;;;;;;20.30;13.10;;;3.00;99.90;;;;;;5024943;28;20655;-70
2023/01/25 06:08:48;;;;;;;19.70;13.00;;;2.90;99.90;;;;;;5017769;28;20462;-70
2023/01/25 06:11:17;;;;;;;22.90;14.90;;;2.90;99.90;;;;;;5022784;28;20460;-70
2023/01/25 06:13:43;;;;;;;23.03;15.27;;;2.90;99.90;;;;;;5021569;28;20178;-70
2023/01/25 06:16:09;;;;;;;26.40;14.77;;;2.90;99.90;;;;;;5023862;28;20985;-70
2023/01/25 06:18:35;;;;;;;21.33;15.33;;;3.00;99.90;;;;;;5017614;28;20482;-70
2023/01/25 06:21:02;;;;;;;24.40;15.53;;;2.90;99.90;;;;;;5020290;28;20175;-70
2023/01/25 06:23:28;;;;;;;19.10;13.93;;;2.90;99.90;;;;;;5019965;28;20521;-70
2023/01/25 06:25:58;;;;;;;17.77;12.93;;;2.90;99.90;;;;;;5017019;28;20481;-70
2023/01/25 06:28:23;;;;;;;21.63;13.80;;;2.90;99.90;;;;;;5017095;28;20210;-70
2023/01/25 06:30:49;;;;;;;16.90;13.23;;;3.00;99.90;;;;;;5019277;28;20442;-70
2023/01/25 06:33:14;;;;;;;21.40;13.60;;;3.00;99.90;;;;;;5021426;28;20175;-70
2023/01/25 06:35:41;;;;;;;18.60;13.10;;;2.90;99.90;;;;;;5022786;28;20236;-70
2023/01/25 06:38:06;;;;;;;24.07;15.63;;;2.80;99.90;;;;;;5020579;28;20197;-70
2023/01/25 06:40:32;;;;;;;24.17;15.10;;;2.90;99.90;;;;;;5018955;28;20437;-70
2023/01/25 06:43:10;;;;;;;20.77;13.53;;;2.90;99.90;;;;;;5022886;28;20174;-70
2023/01/25 06:45:36;;;;;;;19.10;14.03;;;3.00;99.90;;;;;;5014969;28;20202;-70
2023/01/25 06:48:02;;;;;;;18.80;13.40;;;3.00;99.90;;;;;;5005804;28;20543;-69
2023/01/25 06:50:28;;;;;;;21.20;13.90;;;2.90;99.90;;;;;;5006632;28;20191;-68
2023/01/25 06:52:54;;;;;;;25.70;15.77;;;2.90;99.90;;;;;;5008252;28;21136;-69
2023/01/25 06:55:20;;;;;;;21.80;14.17;;;2.90;99.90;;;;;;5007470;28;20271;-69
2023/01/25 06:57:46;;;;;;;16.70;13.07;;;2.90;99.90;;;;;;5010980;28;20520;-68
2023/01/25 07:00:13;;;;;;;19.90;14.13;;;2.90;99.90;;;;;;5011003;28;20871;-69
2023/01/25 07:02:38;;;;;;;26.93;14.80;;;2.90;99.90;;;;;;5009933;28;20442;-70
2023/01/25 07:05:04;;;;;;;19.80;14.40;;;2.90;99.90;;;;;;5007744;28;20433;-70
2023/01/25 07:07:30;;;;;;;20.90;14.23;;;3.00;99.90;;;;;;5013783;28;20278;-69
2023/01/25 07:09:57;;;;;;;18.60;13.03;;;3.00;99.90;;;;;;5009898;28;20438;-69
2023/01/25 07:12:23;;;;;;;24.50;15.07;;;3.00;99.90;;;;;;5009649;28;20179;-69
2023/01/25 07:14:49;;;;;;;24.60;15.40;;;3.00;99.90;;;;;;5012042;28;20425;-69
2023/01/25 07:17:14;;;;;;;22.93;14.27;;;3.10;99.90;;;;;;5008522;28;20844;-69
2023/01/25 07:19:40;;;;;;;24.93;14.37;;;3.20;99.90;;;;;;5011090;28;20179;-69
2023/01/25 07:22:05;;;;;;;23.63;17.60;;;3.20;99.90;;;;;;5011208;28;20186;-70
2023/01/25 07:24:31;;;;;;;25.60;15.23;;;3.10;99.90;;;;;;5000363;28;20186;-69
2023/01/25 07:26:57;;;;;;;21.47;15.17;;;3.10;99.90;;;;;;5010508;28;20187;-70
2023/01/25 07:29:23;;;;;;;20.40;14.10;;;3.00;99.90;;;;;;5010151;28;20199;-70
2023/01/25 07:31:48;;;;;;;20.30;13.70;;;3.10;99.90;;;;;;5014797;28;20183;-69
2023/01/25 07:34:14;;;;;;;20.77;13.13;;;3.00;99.90;;;;;;5015874;28;20791;-69
2023/01/25 07:36:40;;;;;;;24.33;15.63;;;3.00;99.90;;;;;;5014931;28;20187;-69
2023/01/25 07:39:09;;;;;;;23.03;16.27;;;3.10;99.90;;;;;;5015232;28;20206;-70
2023/01/25 07:41:34;;;;;;;21.07;13.70;;;3.10;99.90;;;;;;5011348;28;21130;-69
2023/01/25 07:44:00;;;;;;;25.10;16.47;;;3.00;99.90;;;;;;5014371;28;20524;-69
2023/01/25 07:46:26;;;;;;;27.87;17.43;;;3.00;99.90;;;;;;5012996;28;20261;-68
2023/01/25 07:48:52;;;;;;;22.57;14.80;;;3.00;99.90;;;;;;5013788;28;20253;-69
2023/01/25 07:51:23;;;;;;;21.00;15.30;;;3.00;99.90;;;;;;4994925;28;20186;-69
2023/01/25 07:53:54;;;;;;;25.30;16.20;;;3.00;99.90;;;;;;5006386;28;20450;-68
2023/01/25 07:56:22;;;;;;;24.10;14.67;;;3.10;99.90;;;;;;4987351;28;20448;-67
2023/01/25 07:58:48;;;;;;;22.47;15.40;;;3.10;99.90;;;;;;5007705;28;20468;-68
2023/01/25 08:01:18;;;;;;;26.60;17.57;;;3.20;99.90;;;;;;5017300;28;20533;-68
2023/01/25 08:03:45;;;;;;;26.47;17.43;;;3.20;99.90;;;;;;5003838;28;20186;-65
2023/01/25 08:06:11;;;;;;;27.50;15.30;;;3.20;99.90;;;;;;5003787;28;20438;-68
2023/01/25 08:08:43;;;;;;;21.37;15.73;;;3.30;99.90;;;;;;4984380;28;20454;-68
2023/01/25 08:11:12;;;;;;;24.97;15.30;;;3.20;99.90;;;;;;5009560;28;20438;-69
2023/01/25 08:13:38;;;;;;;26.23;15.60;;;3.20;99.90;;;;;;5004420;28;20454;-68
2023/01/25 08:16:04;;;;;;;24.87;14.93;;;3.30;99.90;;;;;;5009354;28;20527;-68
2023/01/25 08:18:30;;;;;;;17.07;13.30;;;3.20;99.90;;;;;;5012718;28;20998;-69
2023/01/25 08:20:59;;;;;;;20.37;13.53;;;3.30;99.90;;;;;;5013633;28;20453;-67
2023/01/25 08:23:25;;;;;;;21.40;15.27;;;3.30;99.90;;;;;;5015600;28;20256;-68
2023/01/25 08:25:51;;;;;;;19.37;14.47;;;3.20;99.90;;;;;;5010007;28;20587;-68
2023/01/25 08:28:17;;;;;;;23.17;15.70;;;3.20;99.90;;;;;;5010837;28;21027;-68
2023/01/25 08:30:42;;;;;;;20.90;15.07;;;3.30;99.90;;;;;;5002638;28;20637;-68
2023/01/25 08:33:07;;;;;;;26.97;16.03;;;3.20;99.90;;;;;;5013143;28;20193;-68
2023/01/25 08:35:35;;;;;;;21.50;14.70;;;3.20;99.90;;;;;;5010758;28;20656;-69
2023/01/25 08:38:01;;;;;;;22.23;14.00;;;3.20;99.90;;;;;;5019997;28;20206;-68
2023/01/25 08:40:26;;;;;;;20.33;14.47;;;3.20;99.90;;;;;;5017639;28;20904;-68
2023/01/25 08:42:52;;;;;;;23.17;16.30;;;3.10;99.90;;;;;;5011002;28;20190;-68
2023/01/25 08:45:18;;;;;;;26.10;14.63;;;3.20;99.90;;;;;;5008520;28;20208;-68
2023/01/25 08:47:43;;;;;;;22.37;15.80;;;3.20;99.90;;;;;;5011604;28;20209;-68
2023/01/25 08:50:09;;;;;;;23.23;15.13;;;3.30;99.90;;;;;;5010098;28;20577;-68
2023/01/25 08:52:35;;;;;;;21.20;13.20;;;3.30;99.90;;;;;;5010792;28;20237;-68
2023/01/25 08:55:00;;;;;;;21.27;14.37;;;3.20;99.90;;;;;;5008235;28;20445;-68
2023/01/25 08:57:26;;;;;;;26.57;15.87;;;3.30;99.90;;;;;;5010957;28;20215;-67
2023/01/25 08:59:51;;;;;;;20.90;14.73;;;3.20;99.90;;;;;;5011210;28;20187;-68
2023/01/25 09:02:18;;;;;;;19.13;13.77;;;3.30;99.90;;;;;;5009253;28;20201;-68
2023/01/25 09:04:43;;;;;;;20.07;13.00;;;3.40;99.90;;;;;;5009967;28;20556;-69
2023/01/25 09:07:09;;;;;;;16.53;11.37;;;3.40;99.90;;;;;;5009104;28;20441;-68
2023/01/25 09:09:34;;;;;;;18.83;13.47;;;3.40;99.90;;;;;;4992440;28;20197;-67
2023/01/25 09:12:00;;;;;;;21.60;15.03;;;3.20;99.90;;;;;;5012502;28;20626;-68
2023/01/25 09:14:25;;;;;;;18.50;13.23;;;3.20;99.90;;;;;;5008479;28;20187;-68
2023/01/25 09:16:51;;;;;;;23.37;14.60;;;3.10;99.90;;;;;;5007418;28;20195;-67
2023/01/25 09:19:17;;;;;;;21.57;15.03;;;3.10;99.90;;;;;;5010483;28;20223;-67
2023/01/25 09:21:42;;;;;;;21.40;15.10;;;3.20;99.90;;;;;;5012432;28;20183;-66
2023/01/25 09:24:08;;;;;;;18.40;13.73;;;3.20;99.90;;;;;;5009166;28;20202;-67
2023/01/25 09:26:39;;;;;;;22.20;15.00;;;3.40;99.90;;;;;;5007799;28;20195;-68
2023/01/25 09:29:06;;;;;;;22.90;14.70;;;3.40;99.90;;;;;;5011109;28;20205;-68
2023/01/25 09:31:32;;;;;;;24.93;15.37;;;3.40;99.90;;;;;;5009227;28;20469;-67
2023/01/25 09:33:57;;;;;;;25.43;15.13;;;3.50;99.90;;;;;;5006754;28;20475;-66
2023/01/25 09:36:23;;;;;;;21.50;13.70;;;3.40;99.90;;;;;;5011166;28;20191;-67
2023/01/25 09:38:49;;;;;;;15.33;12.50;;;3.40;99.90;;;;;;5012993;28;20234;-67
2023/01/25 09:41:31;;;;;;;20.20;14.30;;;3.50;99.90;;;;;;5009870;28;21087;-67
2023/01/25 09:43:56;;;;;;;19.20;14.17;;;3.30;99.90;;;;;;5010972;28;20626;-67
2023/01/25 09:46:30;;;;;;;19.57;14.17;;;3.30;99.90;;;;;;5014902;28;20436;-68
2023/01/25 09:49:08;;;;;;;20.67;13.30;;;3.20;99.90;;;;;;5017676;28;20276;-67
2023/01/25 09:52:09;;;;;;;18.40;13.30;;;3.20;99.90;;;;;;5008448;28;21664;-68
2023/01/25 09:54:44;;;;;;;15.50;12.27;;;3.30;99.90;;;;;;4995690;28;20512;-68
2023/01/25 09:57:41;;;;;;;19.97;12.73;;;3.40;99.90;;;;;;5010097;28;20448;-67
2023/01/25 10:00:33;;;;;;;22.47;15.53;;;3.50;99.90;;;;;;4987550;28;20452;-68
2023/01/25 10:03:33;;;;;;;22.50;14.00;;;3.40;99.90;;;;;;5009460;28;20867;-67
2023/01/25 10:06:00;;;;;;;19.43;12.97;;;3.30;99.90;;;;;;4992527;28;20437;-67
2023/01/25 10:08:26;;;;;;;17.90;12.77;;;3.40;99.90;;;;;;5009654;28;20533;-67
2023/01/25 10:11:06;;;;;;;15.47;11.47;;;3.30;99.90;;;;;;5008087;28;20537;-67
2023/01/25 10:13:32;;;;;;;14.87;12.97;;;3.30;99.90;;;;;;5008244;28;20175;-67
2023/01/25 10:16:21;;;;;;;22.10;13.07;;;3.30;99.90;;;;;;5009473;28;20434;-68
2023/01/25 10:19:11;;;;;;;15.57;11.47;;;3.40;99.90;;;;;;5013117;28;20242;-68
2023/01/25 10:21:43;;;;;;;33.50;21.50;;;3.40;99.90;;;;;;4991588;28;20537;-67
2023/01/25 10:24:33;;;;;;;18.47;14.03;;;3.50;99.90;;;;;;5002379;28;20433;-66
2023/01/25 10:27:15;;;;;;;19.90;15.30;;;3.40;99.90;;;;;;5008205;28;20452;-67
2023/01/25 10:29:41;;;;;;;21.50;13.20;;;3.40;99.90;;;;;;5008953;28;20442;-67
2023/01/25 10:32:24;;;;;;;16.90;12.50;;;3.30;99.90;;;;;;5014524;28;20437;-68
2023/01/25 10:34:51;;;;;;;20.80;13.00;;;3.20;99.90;;;;;;5006254;28;20437;-67
2023/01/25 10:37:29;;;;;;;18.50;13.63;;;3.10;99.90;;;;;;5015083;28;20443;-67
2023/01/25 10:40:12;;;;;;;57.10;26.30;;;3.10;99.90;;;;;;5009952;28;20434;-66
2023/01/25 10:42:45;;;;;;;22.90;13.90;;;3.30;99.90;;;;;;5013705;28;20531;-66
2023/01/25 10:45:12;;;;;;;20.33;13.57;;;3.20;99.90;;;;;;5004362;28;20926;-66
2023/01/25 10:47:41;;;;;;;17.10;13.23;;;3.20;99.90;;;;;;5009558;28;20449;-67
2023/01/25 10:50:08;;;;;;;17.63;13.53;;;3.20;99.90;;;;;;5002788;28;20433;-66
2023/01/25 10:52:37;;;;;;;15.13;12.17;;;3.30;99.90;;;;;;5015904;28;20587;-66
2023/01/25 10:55:24;;;;;;;18.70;15.00;;;3.30;99.90;;;;;;5005357;28;20513;-66
2023/01/25 10:57:54;;;;;;;19.50;14.40;;;3.30;99.90;;;;;;5009850;28;20983;-67
2023/01/25 11:00:40;;;;;;;23.83;13.27;;;3.40;99.90;;;;;;5009121;28;20445;-67
2023/01/25 11:03:20;;;;;;;21.77;14.67;;;3.40;99.90;;;;;;5004382;28;20476;-66
2023/01/25 11:05:56;;;;;;;18.47;13.20;;;3.50;99.90;;;;;;5004953;28;20499;-66
2023/01/25 11:08:24;;;;;;;20.73;15.33;;;3.50;99.90;;;;;;5007056;28;20468;-68
2023/01/25 11:10:51;;;;;;;20.50;14.23;;;3.60;99.90;;;;;;5010748;28;20443;-68
2023/01/25 11:13:24;;;;;;;21.17;16.40;;;3.70;99.90;;;;;;5009546;28;20511;-67
2023/01/25 11:15:52;;;;;;;25.63;17.37;;;3.80;99.90;;;;;;5003855;28;20496;-68
2023/01/25 11:18:27;;;;;;;23.83;16.73;;;3.80;99.90;;;;;;5007033;28;20468;-68
2023/01/25 11:21:03;;;;;;;20.93;14.87;;;3.80;99.90;;;;;;5009613;28;20432;-68
2023/01/25 11:23:30;;;;;;;21.10;14.57;;;3.70;99.90;;;;;;5014483;28;21074;-66
2023/01/25 11:26:11;;;;;;;46.20;32.67;;;3.80;99.90;;;;;;5006097;28;20438;-67
2023/01/25 11:28:36;;;;;;;105.43;52.57;;;3.70;99.90;;;;;;5006239;28;20848;-66
2023/01/25 11:31:02;;;;;;;130.50;57.17;;;3.70;99.90;;;;;;5008813;28;20451;-64
2023/01/25 11:33:29;;;;;;;83.60;47.73;;;3.80;99.90;;;;;;5008153;28;21160;-65
2023/01/25 11:36:04;;;;;;;38.27;23.10;;;3.80;99.90;;;;;;5006253;28;20684;-65
2023/01/25 11:38:30;;;;;;;34.90;21.37;;;3.80;99.90;;;;;;5011283;28;20461;-65
2023/01/25 11:41:17;;;;;;;34.70;22.87;;;3.90;99.90;;;;;;5008392;28;20517;-65
2023/01/25 11:43:59;;;;;;;32.43;19.73;;;3.90;99.90;;;;;;5008373;28;20270;-63
2023/01/25 11:46:40;;;;;;;21.20;16.43;;;3.80;99.90;;;;;;5010745;28;20953;-65
2023/01/25 11:49:19;;;;;;;24.53;17.00;;;3.70;99.90;;;;;;5007112;28;20460;-65
2023/01/25 11:51:50;;;;;;;23.80;16.90;;;3.80;99.90;;;;;;5002815;28;20519;-66
2023/01/25 11:54:36;;;;;;;24.43;17.63;;;3.70;99.90;;;;;;5007514;28;20529;-68
2023/01/25 11:57:04;;;;;;;22.97;16.63;;;3.60;99.90;;;;;;5007258;28;20434;-67
2023/01/25 11:59:32;;;;;;;18.80;13.80;;;3.60;99.90;;;;;;5006940;28;20484;-68
2023/01/25 12:02:32;;;;;;;20.43;14.37;;;3.60;99.90;;;;;;5014339;28;20434;-67
2023/01/25 12:05:25;;;;;;;21.40;17.20;;;3.70;99.90;;;;;;5004272;28;20496;-70
2023/01/25 12:08:10;;;;;;;23.70;15.23;;;3.70;99.90;;;;;;5011916;28;20449;-68
2023/01/25 12:10:44;;;;;;;22.60;15.20;;;3.80;99.90;;;;;;5009321;28;21054;-68
2023/01/25 12:13:45;;;;;;;17.43;13.60;;;3.70;99.90;;;;;;5013230;28;20428;-68
2023/01/25 12:16:23;;;;;;;21.27;15.03;;;3.70;99.90;;;;;;5008694;28;20452;-68
2023/01/25 12:19:07;;;;;;;20.33;14.03;;;3.70;99.90;;;;;;5012199;28;20529;-69
2023/01/25 12:21:32;;;;;;;25.30;15.30;;;3.70;99.90;;;;;;5009907;28;20807;-67
2023/01/25 12:24:04;;;;;;;22.20;16.83;;;3.70;99.90;;;;;;5009202;28;20445;-69
2023/01/25 12:27:07;;;;;;;23.27;16.60;;;3.70;99.90;;;;;;5008170;28;20270;-69
2023/01/25 12:30:19;;;;;;;21.33;16.03;;;3.70;99.90;;;;;;5012242;28;20982;-66
2023/01/25 12:32:52;;;;;;;22.63;15.13;;;3.70;99.90;;;;;;4971626;28;20969;-69
2023/01/25 12:35:35;;;;;;;23.60;16.80;;;3.70;99.90;;;;;;5007186;28;20698;-68
2023/01/25 12:38:07;;;;;;;24.07;16.17;;;3.70;99.90;;;;;;5011548;28;20464;-69
2023/01/25 12:41:00;;;;;;;22.63;17.10;;;3.70;99.90;;;;;;5012484;28;20440;-68
2023/01/25 12:43:32;;;;;;;26.33;17.57;;;3.70;99.90;;;;;;5006563;28;20448;-68
2023/01/25 12:46:00;;;;;;;24.87;17.30;;;3.70;99.90;;;;;;5009471;28;20496;-70